Terminal Aerodrome Forecast
Issued by NWS

Home | Current Version | Previous Version | Text Only | Print | Product List | Glossary On
Versions: 1 2 3 4 5 6 7 8 9 10 11 12 13 14 15 16 17 18 19 20 21 22 23 24 25 26 27 28 29 30
533
FTUS43 KDVN 230541
TAFBRL
TAF
KBRL 230541Z 2306/2406 32009KT P6SM SCT008 OVC025
      TEMPO 2307/2310 5SM BR BKN008
     FM231000 31007KT 4SM BR BKN006 OVC020
     FM231600 32008KT P6SM BKN015
     FM232200 31006KT P6SM BKN025=

USA.gov is the U.S. government's official web portal to all federal, state and local government web resources and services.